sensor_id;sensor_type;location;lat;lon;timestamp;P1;durP1;ratioP1;P2;durP2;ratioP2
55065;SDS011;40964;42.114;24.220;2023-06-19T00:02:17;10.25;;;6.07;;
55065;SDS011;40964;42.114;24.220;2023-06-19T00:04:42;8.50;;;6.00;;
55065;SDS011;40964;42.114;24.220;2023-06-19T00:07:08;9.80;;;6.63;;
55065;SDS011;40964;42.114;24.220;2023-06-19T00:09:33;7.65;;;5.75;;
55065;SDS011;40964;42.114;24.220;2023-06-19T00:11:58;9.38;;;6.20;;
55065;SDS011;40964;42.114;24.220;2023-06-19T00:14:25;8.05;;;6.55;;
55065;SDS011;40964;42.114;24.220;2023-06-19T00:16:50;7.45;;;6.18;;
55065;SDS011;40964;42.114;24.220;2023-06-19T00:19:16;8.63;;;5.85;;
55065;SDS011;40964;42.114;24.220;2023-06-19T00:21:43;8.40;;;6.22;;
55065;SDS011;40964;42.114;24.220;2023-06-19T00:24:09;6.18;;;5.25;;
55065;SDS011;40964;42.114;24.220;2023-06-19T00:26:35;7.70;;;5.60;;
55065;SDS011;40964;42.114;24.220;2023-06-19T00:29:00;7.07;;;5.53;;
55065;SDS011;40964;42.114;24.220;2023-06-19T00:31:26;5.50;;;4.90;;
55065;SDS011;40964;42.114;24.220;2023-06-19T00:33:55;6.78;;;5.45;;
55065;SDS011;40964;42.114;24.220;2023-06-19T00:36:20;8.73;;;5.50;;
55065;SDS011;40964;42.114;24.220;2023-06-19T00:38:46;8.13;;;5.68;;
55065;SDS011;40964;42.114;24.220;2023-06-19T00:41:13;7.32;;;5.65;;
55065;SDS011;40964;42.114;24.220;2023-06-19T00:43:40;8.00;;;5.65;;
55065;SDS011;40964;42.114;24.220;2023-06-19T00:46:05;6.93;;;5.53;;
55065;SDS011;40964;42.114;24.220;2023-06-19T00:48:31;9.20;;;5.15;;
55065;SDS011;40964;42.114;24.220;2023-06-19T00:50:57;6.13;;;4.78;;
55065;SDS011;40964;42.114;24.220;2023-06-19T00:53:23;7.50;;;5.28;;
55065;SDS011;40964;42.114;24.220;2023-06-19T00:55:50;7.10;;;5.55;;
55065;SDS011;40964;42.114;24.220;2023-06-19T00:58:17;5.82;;;4.97;;
55065;SDS011;40964;42.114;24.220;2023-06-19T01:00:47;5.85;;;5.03;;
55065;SDS011;40964;42.114;24.220;2023-06-19T01:03:13;6.70;;;5.65;;
55065;SDS011;40964;42.114;24.220;2023-06-19T01:05:39;6.45;;;5.63;;
55065;SDS011;40964;42.114;24.220;2023-06-19T01:10:43;8.73;;;5.32;;
55065;SDS011;40964;42.114;24.220;2023-06-19T01:13:22;6.68;;;5.13;;
55065;SDS011;40964;42.114;24.220;2023-06-19T01:16:23;8.38;;;5.72;;
55065;SDS011;40964;42.114;24.220;2023-06-19T01:18:49;8.23;;;5.25;;
55065;SDS011;40964;42.114;24.220;2023-06-19T01:21:16;8.70;;;5.40;;
55065;SDS011;40964;42.114;24.220;2023-06-19T01:23:42;7.10;;;5.45;;
55065;SDS011;40964;42.114;24.220;2023-06-19T01:26:08;6.18;;;5.13;;
55065;SDS011;40964;42.114;24.220;2023-06-19T01:28:35;7.28;;;5.57;;
55065;SDS011;40964;42.114;24.220;2023-06-19T01:31:15;6.45;;;5.20;;
55065;SDS011;40964;42.114;24.220;2023-06-19T01:33:46;9.48;;;5.57;;
55065;SDS011;40964;42.114;24.220;2023-06-19T01:36:13;6.82;;;5.40;;
55065;SDS011;40964;42.114;24.220;2023-06-19T01:38:40;7.68;;;5.13;;
55065;SDS011;40964;42.114;24.220;2023-06-19T01:41:09;8.73;;;5.13;;
55065;SDS011;40964;42.114;24.220;2023-06-19T01:43:36;6.63;;;5.05;;
55065;SDS011;40964;42.114;24.220;2023-06-19T01:46:02;7.45;;;5.47;;
55065;SDS011;40964;42.114;24.220;2023-06-19T01:48:27;7.55;;;5.75;;
55065;SDS011;40964;42.114;24.220;2023-06-19T01:50:53;7.78;;;5.90;;
55065;SDS011;40964;42.114;24.220;2023-06-19T01:53:18;6.65;;;5.32;;
55065;SDS011;40964;42.114;24.220;2023-06-19T01:55:44;7.50;;;5.25;;
55065;SDS011;40964;42.114;24.220;2023-06-19T01:58:09;8.05;;;5.50;;
55065;SDS011;40964;42.114;24.220;2023-06-19T02:00:35;8.85;;;5.55;;
55065;SDS011;40964;42.114;24.220;2023-06-19T02:03:01;7.82;;;5.25;;
55065;SDS011;40964;42.114;24.220;2023-06-19T02:05:26;6.13;;;5.43;;
55065;SDS011;40964;42.114;24.220;2023-06-19T02:07:52;9.00;;;5.60;;
55065;SDS011;40964;42.114;24.220;2023-06-19T02:10:17;7.43;;;5.05;;
55065;SDS011;40964;42.114;24.220;2023-06-19T02:12:43;8.40;;;6.05;;
55065;SDS011;40964;42.114;24.220;2023-06-19T02:15:08;7.82;;;6.00;;
55065;SDS011;40964;42.114;24.220;2023-06-19T02:17:34;6.25;;;5.22;;
55065;SDS011;40964;42.114;24.220;2023-06-19T02:20:00;10.20;;;5.47;;
55065;SDS011;40964;42.114;24.220;2023-06-19T02:22:25;9.88;;;5.18;;
55065;SDS011;40964;42.114;24.220;2023-06-19T02:24:51;7.18;;;5.63;;
55065;SDS011;40964;42.114;24.220;2023-06-19T02:27:16;10.00;;;5.43;;
55065;SDS011;40964;42.114;24.220;2023-06-19T02:29:42;7.07;;;5.60;;
55065;SDS011;40964;42.114;24.220;2023-06-19T02:32:13;8.40;;;5.72;;
55065;SDS011;40964;42.114;24.220;2023-06-19T02:34:41;7.32;;;5.50;;
55065;SDS011;40964;42.114;24.220;2023-06-19T02:37:09;12.15;;;5.65;;
55065;SDS011;40964;42.114;24.220;2023-06-19T02:39:35;11.98;;;5.60;;
55065;SDS011;40964;42.114;24.220;2023-06-19T02:42:00;7.60;;;5.53;;
55065;SDS011;40964;42.114;24.220;2023-06-19T02:44:28;7.68;;;5.78;;
55065;SDS011;40964;42.114;24.220;2023-06-19T02:47:03;9.43;;;5.90;;
55065;SDS011;40964;42.114;24.220;2023-06-19T02:49:31;12.93;;;5.70;;
55065;SDS011;40964;42.114;24.220;2023-06-19T02:51:57;9.75;;;5.82;;
55065;SDS011;40964;42.114;24.220;2023-06-19T02:54:22;9.43;;;5.68;;
55065;SDS011;40964;42.114;24.220;2023-06-19T02:56:51;10.60;;;6.15;;
55065;SDS011;40964;42.114;24.220;2023-06-19T02:59:16;7.50;;;5.72;;
55065;SDS011;40964;42.114;24.220;2023-06-19T03:01:41;9.80;;;6.40;;
55065;SDS011;40964;42.114;24.220;2023-06-19T03:04:07;7.88;;;5.97;;
55065;SDS011;40964;42.114;24.220;2023-06-19T03:09:07;8.10;;;5.90;;
55065;SDS011;40964;42.114;24.220;2023-06-19T03:11:40;7.72;;;5.85;;
55065;SDS011;40964;42.114;24.220;2023-06-19T03:14:08;8.32;;;5.68;;
55065;SDS011;40964;42.114;24.220;2023-06-19T03:16:40;7.75;;;6.15;;
55065;SDS011;40964;42.114;24.220;2023-06-19T03:19:08;9.18;;;5.97;;
55065;SDS011;40964;42.114;24.220;2023-06-19T03:21:36;7.95;;;6.07;;
55065;SDS011;40964;42.114;24.220;2023-06-19T03:24:02;8.18;;;6.10;;
55065;SDS011;40964;42.114;24.220;2023-06-19T03:26:33;8.88;;;6.05;;
55065;SDS011;40964;42.114;24.220;2023-06-19T03:29:06;15.97;;;5.73;;
55065;SDS011;40964;42.114;24.220;2023-06-19T03:31:31;10.05;;;6.30;;
55065;SDS011;40964;42.114;24.220;2023-06-19T03:34:00;7.72;;;5.82;;
55065;SDS011;40964;42.114;24.220;2023-06-19T03:36:28;7.72;;;5.88;;
55065;SDS011;40964;42.114;24.220;2023-06-19T03:38:54;13.85;;;6.35;;
55065;SDS011;40964;42.114;24.220;2023-06-19T03:41:20;10.38;;;6.07;;
55065;SDS011;40964;42.114;24.220;2023-06-19T03:43:46;8.32;;;6.18;;
55065;SDS011;40964;42.114;24.220;2023-06-19T03:46:11;9.65;;;6.70;;
55065;SDS011;40964;42.114;24.220;2023-06-19T03:48:36;11.65;;;6.45;;
55065;SDS011;40964;42.114;24.220;2023-06-19T03:51:02;14.75;;;6.55;;
55065;SDS011;40964;42.114;24.220;2023-06-19T03:53:37;11.00;;;7.03;;
55065;SDS011;40964;42.114;24.220;2023-06-19T03:56:02;10.02;;;5.93;;
55065;SDS011;40964;42.114;24.220;2023-06-19T03:58:28;8.95;;;6.95;;
55065;SDS011;40964;42.114;24.220;2023-06-19T04:00:53;10.95;;;6.75;;
55065;SDS011;40964;42.114;24.220;2023-06-19T04:03:19;11.27;;;6.32;;
55065;SDS011;40964;42.114;24.220;2023-06-19T04:05:44;7.85;;;6.45;;
55065;SDS011;40964;42.114;24.220;2023-06-19T04:08:12;12.57;;;6.95;;
55065;SDS011;40964;42.114;24.220;2023-06-19T04:10:38;11.40;;;5.53;;
55065;SDS011;40964;42.114;24.220;2023-06-19T04:13:06;7.72;;;6.20;;
55065;SDS011;40964;42.114;24.220;2023-06-19T04:15:32;10.02;;;5.63;;
55065;SDS011;40964;42.114;24.220;2023-06-19T04:18:01;10.43;;;6.28;;
55065;SDS011;40964;42.114;24.220;2023-06-19T04:20:27;7.28;;;5.90;;
55065;SDS011;40964;42.114;24.220;2023-06-19T04:22:52;8.07;;;5.88;;
55065;SDS011;40964;42.114;24.220;2023-06-19T04:25:20;7.85;;;5.47;;
55065;SDS011;40964;42.114;24.220;2023-06-19T04:27:45;9.00;;;5.50;;
55065;SDS011;40964;42.114;24.220;2023-06-19T04:30:13;9.77;;;5.30;;
55065;SDS011;40964;42.114;24.220;2023-06-19T04:32:38;7.50;;;5.47;;
55065;SDS011;40964;42.114;24.220;2023-06-19T04:35:10;9.82;;;6.40;;
55065;SDS011;40964;42.114;24.220;2023-06-19T04:37:35;7.13;;;5.90;;
55065;SDS011;40964;42.114;24.220;2023-06-19T04:40:04;6.45;;;5.35;;
55065;SDS011;40964;42.114;24.220;2023-06-19T04:42:32;9.80;;;5.80;;
55065;SDS011;40964;42.114;24.220;2023-06-19T04:44:58;7.70;;;5.13;;
55065;SDS011;40964;42.114;24.220;2023-06-19T04:47:24;9.10;;;5.32;;
55065;SDS011;40964;42.114;24.220;2023-06-19T04:49:50;6.80;;;5.32;;
55065;SDS011;40964;42.114;24.220;2023-06-19T04:52:16;10.10;;;6.25;;
55065;SDS011;40964;42.114;24.220;2023-06-19T04:54:46;9.40;;;5.75;;
55065;SDS011;40964;42.114;24.220;2023-06-19T04:57:16;7.72;;;5.85;;
55065;SDS011;40964;42.114;24.220;2023-06-19T04:59:44;13.38;;;7.88;;
55065;SDS011;40964;42.114;24.220;2023-06-19T05:02:10;9.93;;;8.95;;
55065;SDS011;40964;42.114;24.220;2023-06-19T05:04:36;10.30;;;9.20;;
55065;SDS011;40964;42.114;24.220;2023-06-19T05:07:01;7.18;;;6.20;;
55065;SDS011;40964;42.114;24.220;2023-06-19T05:09:28;7.97;;;5.95;;
55065;SDS011;40964;42.114;24.220;2023-06-19T05:11:53;7.18;;;5.88;;
55065;SDS011;40964;42.114;24.220;2023-06-19T05:14:19;10.70;;;6.78;;
55065;SDS011;40964;42.114;24.220;2023-06-19T05:16:45;8.68;;;6.55;;
55065;SDS011;40964;42.114;24.220;2023-06-19T05:19:10;10.40;;;6.97;;
55065;SDS011;40964;42.114;24.220;2023-06-19T05:21:36;9.05;;;6.85;;
55065;SDS011;40964;42.114;24.220;2023-06-19T05:24:01;10.55;;;6.20;;
55065;SDS011;40964;42.114;24.220;2023-06-19T05:26:27;8.00;;;6.00;;
55065;SDS011;40964;42.114;24.220;2023-06-19T05:28:52;8.13;;;6.07;;
55065;SDS011;40964;42.114;24.220;2023-06-19T05:31:18;8.98;;;6.00;;
55065;SDS011;40964;42.114;24.220;2023-06-19T05:33:44;6.82;;;5.57;;
55065;SDS011;40964;42.114;24.220;2023-06-19T05:36:10;10.70;;;6.32;;
55065;SDS011;40964;42.114;24.220;2023-06-19T05:38:35;7.20;;;6.00;;
55065;SDS011;40964;42.114;24.220;2023-06-19T05:41:01;7.07;;;5.70;;
55065;SDS011;40964;42.114;24.220;2023-06-19T05:43:27;6.72;;;6.03;;
55065;SDS011;40964;42.114;24.220;2023-06-19T05:45:53;7.75;;;5.78;;
55065;SDS011;40964;42.114;24.220;2023-06-19T05:48:20;8.65;;;6.53;;
55065;SDS011;40964;42.114;24.220;2023-06-19T05:50:46;8.85;;;6.28;;
55065;SDS011;40964;42.114;24.220;2023-06-19T05:53:12;8.02;;;6.53;;
55065;SDS011;40964;42.114;24.220;2023-06-19T05:55:37;7.40;;;6.28;;
55065;SDS011;40964;42.114;24.220;2023-06-19T05:58:03;6.38;;;5.72;;
55065;SDS011;40964;42.114;24.220;2023-06-19T06:00:29;9.25;;;6.50;;
55065;SDS011;40964;42.114;24.220;2023-06-19T06:02:56;6.32;;;5.28;;
55065;SDS011;40964;42.114;24.220;2023-06-19T06:05:24;6.30;;;4.95;;
55065;SDS011;40964;42.114;24.220;2023-06-19T06:07:52;7.85;;;5.57;;
55065;SDS011;40964;42.114;24.220;2023-06-19T06:10:22;8.05;;;5.38;;
55065;SDS011;40964;42.114;24.220;2023-06-19T06:12:48;6.50;;;5.57;;
55065;SDS011;40964;42.114;24.220;2023-06-19T06:15:14;6.70;;;5.20;;
55065;SDS011;40964;42.114;24.220;2023-06-19T06:17:39;6.80;;;5.55;;
55065;SDS011;40964;42.114;24.220;2023-06-19T06:20:05;5.95;;;5.35;;
55065;SDS011;40964;42.114;24.220;2023-06-19T06:22:38;6.22;;;5.07;;
55065;SDS011;40964;42.114;24.220;2023-06-19T06:25:04;5.72;;;4.85;;
55065;SDS011;40964;42.114;24.220;2023-06-19T06:27:30;5.80;;;5.25;;
55065;SDS011;40964;42.114;24.220;2023-06-19T06:29:55;6.95;;;4.70;;
55065;SDS011;40964;42.114;24.220;2023-06-19T06:32:20;5.18;;;4.68;;
55065;SDS011;40964;42.114;24.220;2023-06-19T06:34:46;4.57;;;4.15;;
55065;SDS011;40964;42.114;24.220;2023-06-19T06:37:12;4.78;;;4.28;;
55065;SDS011;40964;42.114;24.220;2023-06-19T06:39:38;4.80;;;4.32;;
55065;SDS011;40964;42.114;24.220;2023-06-19T06:42:03;5.05;;;4.50;;
55065;SDS011;40964;42.114;24.220;2023-06-19T06:44:29;6.18;;;4.70;;
55065;SDS011;40964;42.114;24.220;2023-06-19T06:46:55;5.72;;;4.43;;
55065;SDS011;40964;42.114;24.220;2023-06-19T06:49:20;9.60;;;5.03;;
55065;SDS011;40964;42.114;24.220;2023-06-19T06:51:47;6.15;;;4.60;;
55065;SDS011;40964;42.114;24.220;2023-06-19T06:54:12;8.50;;;5.18;;
55065;SDS011;40964;42.114;24.220;2023-06-19T06:56:38;4.63;;;4.13;;
55065;SDS011;40964;42.114;24.220;2023-06-19T06:59:03;5.75;;;4.32;;
55065;SDS011;40964;42.114;24.220;2023-06-19T07:01:29;6.68;;;4.28;;
55065;SDS011;40964;42.114;24.220;2023-06-19T07:03:54;5.75;;;4.22;;
55065;SDS011;40964;42.114;24.220;2023-06-19T07:06:20;9.90;;;4.60;;
55065;SDS011;40964;42.114;24.220;2023-06-19T07:08:45;6.97;;;4.85;;
55065;SDS011;40964;42.114;24.220;2023-06-19T07:11:12;4.32;;;3.92;;
55065;SDS011;40964;42.114;24.220;2023-06-19T07:13:38;5.63;;;4.57;;
55065;SDS011;40964;42.114;24.220;2023-06-19T07:16:04;7.43;;;4.50;;
55065;SDS011;40964;42.114;24.220;2023-06-19T07:18:30;5.30;;;4.80;;
55065;SDS011;40964;42.114;24.220;2023-06-19T07:20:55;6.88;;;4.25;;
55065;SDS011;40964;42.114;24.220;2023-06-19T07:23:21;7.22;;;4.80;;
55065;SDS011;40964;42.114;24.220;2023-06-19T07:25:47;6.45;;;4.88;;
55065;SDS011;40964;42.114;24.220;2023-06-19T07:28:13;5.72;;;4.35;;
55065;SDS011;40964;42.114;24.220;2023-06-19T07:30:39;6.30;;;5.20;;
55065;SDS011;40964;42.114;24.220;2023-06-19T07:33:04;5.97;;;4.22;;
55065;SDS011;40964;42.114;24.220;2023-06-19T07:35:30;4.60;;;4.00;;
55065;SDS011;40964;42.114;24.220;2023-06-19T07:37:55;4.38;;;3.97;;
55065;SDS011;40964;42.114;24.220;2023-06-19T07:40:21;5.60;;;4.28;;
55065;SDS011;40964;42.114;24.220;2023-06-19T07:42:46;4.72;;;4.20;;
55065;SDS011;40964;42.114;24.220;2023-06-19T07:45:12;6.03;;;4.82;;
55065;SDS011;40964;42.114;24.220;2023-06-19T07:47:38;6.45;;;4.18;;
55065;SDS011;40964;42.114;24.220;2023-06-19T07:50:04;5.57;;;4.72;;
55065;SDS011;40964;42.114;24.220;2023-06-19T07:52:30;4.75;;;4.30;;
55065;SDS011;40964;42.114;24.220;2023-06-19T07:54:56;6.53;;;4.60;;
55065;SDS011;40964;42.114;24.220;2023-06-19T07:57:22;5.43;;;4.20;;
55065;SDS011;40964;42.114;24.220;2023-06-19T07:59:49;8.77;;;4.55;;
55065;SDS011;40964;42.114;24.220;2023-06-19T08:02:15;6.30;;;4.35;;
55065;SDS011;40964;42.114;24.220;2023-06-19T08:04:42;4.85;;;4.40;;
55065;SDS011;40964;42.114;24.220;2023-06-19T08:07:07;5.55;;;4.53;;
55065;SDS011;40964;42.114;24.220;2023-06-19T08:09:32;5.80;;;4.60;;
55065;SDS011;40964;42.114;24.220;2023-06-19T08:11:58;4.68;;;3.83;;
55065;SDS011;40964;42.114;24.220;2023-06-19T08:14:23;7.20;;;4.63;;
55065;SDS011;40964;42.114;24.220;2023-06-19T08:16:49;4.82;;;4.32;;
55065;SDS011;40964;42.114;24.220;2023-06-19T08:19:14;6.18;;;4.47;;
55065;SDS011;40964;42.114;24.220;2023-06-19T08:21:40;6.65;;;4.82;;
55065;SDS011;40964;42.114;24.220;2023-06-19T08:24:05;6.47;;;4.85;;
55065;SDS011;40964;42.114;24.220;2023-06-19T08:26:31;6.15;;;4.45;;
55065;SDS011;40964;42.114;24.220;2023-06-19T08:28:57;5.53;;;4.53;;
55065;SDS011;40964;42.114;24.220;2023-06-19T08:31:22;6.20;;;5.25;;
55065;SDS011;40964;42.114;24.220;2023-06-19T08:33:55;6.78;;;5.45;;
55065;SDS011;40964;42.114;24.220;2023-06-19T08:36:21;5.80;;;4.80;;
55065;SDS011;40964;42.114;24.220;2023-06-19T08:38:47;5.85;;;4.60;;
55065;SDS011;40964;42.114;24.220;2023-06-19T08:41:15;6.15;;;5.50;;
55065;SDS011;40964;42.114;24.220;2023-06-19T08:43:47;5.95;;;5.28;;
55065;SDS011;40964;42.114;24.220;2023-06-19T08:46:16;7.40;;;4.85;;
55065;SDS011;40964;42.114;24.220;2023-06-19T08:48:47;5.67;;;4.77;;
55065;SDS011;40964;42.114;24.220;2023-06-19T08:51:13;6.93;;;5.15;;
55065;SDS011;40964;42.114;24.220;2023-06-19T08:53:45;5.75;;;4.97;;
55065;SDS011;40964;42.114;24.220;2023-06-19T08:56:17;5.50;;;5.00;;
55065;SDS011;40964;42.114;24.220;2023-06-19T08:58:43;7.35;;;5.28;;
55065;SDS011;40964;42.114;24.220;2023-06-19T09:01:08;5.68;;;5.18;;
55065;SDS011;40964;42.114;24.220;2023-06-19T09:03:34;5.25;;;4.65;;
55065;SDS011;40964;42.114;24.220;2023-06-19T09:08:36;7.13;;;5.47;;
55065;SDS011;40964;42.114;24.220;2023-06-19T09:11:03;5.57;;;5.03;;
55065;SDS011;40964;42.114;24.220;2023-06-19T09:13:29;6.35;;;4.65;;
55065;SDS011;40964;42.114;24.220;2023-06-19T09:16:00;5.45;;;4.82;;
55065;SDS011;40964;42.114;24.220;2023-06-19T09:18:31;9.23;;;5.07;;
55065;SDS011;40964;42.114;24.220;2023-06-19T09:21:14;5.88;;;4.90;;
55065;SDS011;40964;42.114;24.220;2023-06-19T09:23:48;5.13;;;4.53;;
55065;SDS011;40964;42.114;24.220;2023-06-19T09:26:16;7.18;;;4.90;;
55065;SDS011;40964;42.114;24.220;2023-06-19T09:28:44;5.22;;;4.72;;
55065;SDS011;40964;42.114;24.220;2023-06-19T09:31:09;5.03;;;4.53;;
55065;SDS011;40964;42.114;24.220;2023-06-19T09:33:36;7.15;;;5.18;;
55065;SDS011;40964;42.114;24.220;2023-06-19T09:36:02;5.13;;;4.55;;
55065;SDS011;40964;42.114;24.220;2023-06-19T09:38:30;5.15;;;4.65;;
55065;SDS011;40964;42.114;24.220;2023-06-19T09:41:01;5.25;;;4.72;;
55065;SDS011;40964;42.114;24.220;2023-06-19T09:43:36;5.82;;;4.70;;
55065;SDS011;40964;42.114;24.220;2023-06-19T09:46:02;5.28;;;4.60;;
55065;SDS011;40964;42.114;24.220;2023-06-19T09:48:30;5.13;;;4.63;;
55065;SDS011;40964;42.114;24.220;2023-06-19T09:51:05;4.75;;;4.18;;
55065;SDS011;40964;42.114;24.220;2023-06-19T09:53:47;4.80;;;4.30;;
55065;SDS011;40964;42.114;24.220;2023-06-19T09:56:14;7.15;;;4.22;;
55065;SDS011;40964;42.114;24.220;2023-06-19T09:58:41;6.85;;;4.20;;
55065;SDS011;40964;42.114;24.220;2023-06-19T10:01:08;5.00;;;4.18;;
55065;SDS011;40964;42.114;24.220;2023-06-19T10:03:34;5.53;;;4.43;;
55065;SDS011;40964;42.114;24.220;2023-06-19T10:06:00;4.47;;;4.03;;
55065;SDS011;40964;42.114;24.220;2023-06-19T10:08:29;6.97;;;4.85;;
55065;SDS011;40964;42.114;24.220;2023-06-19T10:11:03;4.68;;;3.90;;
55065;SDS011;40964;42.114;24.220;2023-06-19T10:13:39;4.80;;;4.25;;
55065;SDS011;40964;42.114;24.220;2023-06-19T10:16:27;4.78;;;4.32;;
55065;SDS011;40964;42.114;24.220;2023-06-19T10:18:51;4.88;;;4.28;;
55065;SDS011;40964;42.114;24.220;2023-06-19T10:21:17;6.28;;;4.32;;
55065;SDS011;40964;42.114;24.220;2023-06-19T10:23:52;6.28;;;4.45;;
55065;SDS011;40964;42.114;24.220;2023-06-19T10:26:19;5.30;;;4.80;;
55065;SDS011;40964;42.114;24.220;2023-06-19T10:28:46;5.80;;;4.50;;
55065;SDS011;40964;42.114;24.220;2023-06-19T10:31:13;5.57;;;4.40;;
55065;SDS011;40964;42.114;24.220;2023-06-19T10:33:39;5.07;;;4.57;;
55065;SDS011;40964;42.114;24.220;2023-06-19T10:36:14;6.40;;;4.72;;
55065;SDS011;40964;42.114;24.220;2023-06-19T10:38:40;5.95;;;5.30;;
55065;SDS011;40964;42.114;24.220;2023-06-19T10:41:14;5.43;;;4.50;;
55065;SDS011;40964;42.114;24.220;2023-06-19T10:43:40;5.28;;;4.43;;
55065;SDS011;40964;42.114;24.220;2023-06-19T10:46:05;4.93;;;4.20;;
55065;SDS011;40964;42.114;24.220;2023-06-19T10:48:31;4.65;;;4.25;;
55065;SDS011;40964;42.114;24.220;2023-06-19T10:50:57;5.38;;;4.30;;
55065;SDS011;40964;42.114;24.220;2023-06-19T10:53:32;6.15;;;4.38;;
55065;SDS011;40964;42.114;24.220;2023-06-19T10:55:59;8.98;;;3.72;;
55065;SDS011;40964;42.114;24.220;2023-06-19T10:58:26;4.20;;;3.80;;
55065;SDS011;40964;42.114;24.220;2023-06-19T11:00:52;3.75;;;3.35;;
55065;SDS011;40964;42.114;24.220;2023-06-19T11:03:18;4.20;;;3.50;;
55065;SDS011;40964;42.114;24.220;2023-06-19T11:05:44;4.10;;;3.72;;
55065;SDS011;40964;42.114;24.220;2023-06-19T11:08:10;5.13;;;3.60;;
55065;SDS011;40964;42.114;24.220;2023-06-19T11:10:36;5.53;;;4.05;;
55065;SDS011;40964;42.114;24.220;2023-06-19T11:13:01;6.65;;;3.90;;
55065;SDS011;40964;42.114;24.220;2023-06-19T11:15:27;4.97;;;3.63;;
55065;SDS011;40964;42.114;24.220;2023-06-19T11:17:57;4.15;;;3.70;;
55065;SDS011;40964;42.114;24.220;2023-06-19T11:20:23;4.47;;;3.58;;
55065;SDS011;40964;42.114;24.220;2023-06-19T11:22:53;19.08;;;3.95;;
55065;SDS011;40964;42.114;24.220;2023-06-19T11:25:37;3.65;;;3.22;;
55065;SDS011;40964;42.114;24.220;2023-06-19T11:28:10;5.05;;;4.05;;
55065;SDS011;40964;42.114;24.220;2023-06-19T11:30:40;5.55;;;3.70;;
55065;SDS011;40964;42.114;24.220;2023-06-19T11:33:18;5.18;;;3.92;;
55065;SDS011;40964;42.114;24.220;2023-06-19T11:35:53;4.18;;;3.67;;
55065;SDS011;40964;42.114;24.220;2023-06-19T11:38:20;4.93;;;3.90;;
55065;SDS011;40964;42.114;24.220;2023-06-19T11:40:47;3.95;;;3.55;;
55065;SDS011;40964;42.114;24.220;2023-06-19T11:43:23;4.07;;;3.67;;
55065;SDS011;40964;42.114;24.220;2023-06-19T11:45:49;3.83;;;3.33;;
55065;SDS011;40964;42.114;24.220;2023-06-19T11:48:23;6.55;;;4.05;;
55065;SDS011;40964;42.114;24.220;2023-06-19T11:50:50;3.72;;;3.42;;
55065;SDS011;40964;42.114;24.220;2023-06-19T11:53:16;4.43;;;3.58;;
55065;SDS011;40964;42.114;24.220;2023-06-19T11:55:42;4.03;;;3.35;;
55065;SDS011;40964;42.114;24.220;2023-06-19T11:58:09;5.10;;;4.18;;
55065;SDS011;40964;42.114;24.220;2023-06-19T12:00:35;6.85;;;3.80;;
55065;SDS011;40964;42.114;24.220;2023-06-19T12:03:01;4.40;;;3.50;;
55065;SDS011;40964;42.114;24.220;2023-06-19T12:05:27;3.97;;;3.58;;
55065;SDS011;40964;42.114;24.220;2023-06-19T12:07:52;4.45;;;3.50;;
55065;SDS011;40964;42.114;24.220;2023-06-19T12:10:18;5.10;;;3.67;;
55065;SDS011;40964;42.114;24.220;2023-06-19T12:12:43;4.65;;;3.60;;
55065;SDS011;40964;42.114;24.220;2023-06-19T12:15:09;4.22;;;3.92;;
55065;SDS011;40964;42.114;24.220;2023-06-19T12:17:34;5.05;;;4.40;;
55065;SDS011;40964;42.114;24.220;2023-06-19T12:20:00;5.35;;;3.90;;
55065;SDS011;40964;42.114;24.220;2023-06-19T12:22:27;6.55;;;3.80;;
55065;SDS011;40964;42.114;24.220;2023-06-19T12:24:53;4.32;;;3.38;;
55065;SDS011;40964;42.114;24.220;2023-06-19T12:27:18;3.88;;;3.47;;
55065;SDS011;40964;42.114;24.220;2023-06-19T12:29:44;4.45;;;4.05;;
55065;SDS011;40964;42.114;24.220;2023-06-19T12:32:09;4.20;;;3.80;;
55065;SDS011;40964;42.114;24.220;2023-06-19T12:34:35;4.45;;;3.55;;
55065;SDS011;40964;42.114;24.220;2023-06-19T12:37:00;4.07;;;3.67;;
55065;SDS011;40964;42.114;24.220;2023-06-19T12:39:26;5.22;;;3.47;;
55065;SDS011;40964;42.114;24.220;2023-06-19T12:41:52;6.40;;;3.42;;
55065;SDS011;40964;42.114;24.220;2023-06-19T12:44:18;5.00;;;3.42;;
55065;SDS011;40964;42.114;24.220;2023-06-19T12:46:43;4.78;;;3.55;;
55065;SDS011;40964;42.114;24.220;2023-06-19T12:49:09;4.05;;;3.65;;
55065;SDS011;40964;42.114;24.220;2023-06-19T12:51:34;3.75;;;3.45;;
55065;SDS011;40964;42.114;24.220;2023-06-19T12:54:00;4.43;;;3.28;;
55065;SDS011;40964;42.114;24.220;2023-06-19T12:56:25;4.28;;;3.67;;
55065;SDS011;40964;42.114;24.220;2023-06-19T12:58:50;5.28;;;4.13;;
55065;SDS011;40964;42.114;24.220;2023-06-19T13:01:16;3.80;;;3.40;;
55065;SDS011;40964;42.114;24.220;2023-06-19T13:03:41;5.55;;;3.72;;
55065;SDS011;40964;42.114;24.220;2023-06-19T13:06:07;5.85;;;4.30;;
55065;SDS011;40964;42.114;24.220;2023-06-19T13:08:32;6.65;;;4.10;;
55065;SDS011;40964;42.114;24.220;2023-06-19T13:10:58;4.45;;;3.78;;
55065;SDS011;40964;42.114;24.220;2023-06-19T13:13:23;4.15;;;3.65;;
55065;SDS011;40964;42.114;24.220;2023-06-19T13:15:48;5.28;;;3.25;;
55065;SDS011;40964;42.114;24.220;2023-06-19T13:18:14;3.80;;;3.40;;
55065;SDS011;40964;42.114;24.220;2023-06-19T13:20:39;3.80;;;2.95;;
55065;SDS011;40964;42.114;24.220;2023-06-19T13:23:05;5.60;;;2.80;;
55065;SDS011;40964;42.114;24.220;2023-06-19T13:25:31;3.78;;;2.42;;
55065;SDS011;40964;42.114;24.220;2023-06-19T13:27:57;2.92;;;2.63;;
55065;SDS011;40964;42.114;24.220;2023-06-19T13:30:23;3.55;;;2.58;;
55065;SDS011;40964;42.114;24.220;2023-06-19T13:32:48;3.10;;;2.40;;
55065;SDS011;40964;42.114;24.220;2023-06-19T13:35:14;2.35;;;2.15;;
55065;SDS011;40964;42.114;24.220;2023-06-19T13:37:39;2.60;;;2.35;;
55065;SDS011;40964;42.114;24.220;2023-06-19T13:40:05;2.83;;;2.42;;
55065;SDS011;40964;42.114;24.220;2023-06-19T13:42:32;2.60;;;2.40;;
55065;SDS011;40964;42.114;24.220;2023-06-19T13:45:00;3.22;;;2.67;;
55065;SDS011;40964;42.114;24.220;2023-06-19T13:47:29;2.88;;;2.67;;
55065;SDS011;40964;42.114;24.220;2023-06-19T13:49:55;5.22;;;2.97;;
55065;SDS011;40964;42.114;24.220;2023-06-19T13:52:20;3.72;;;3.08;;
55065;SDS011;40964;42.114;24.220;2023-06-19T13:54:46;5.82;;;3.40;;
55065;SDS011;40964;42.114;24.220;2023-06-19T13:57:11;3.17;;;2.97;;
55065;SDS011;40964;42.114;24.220;2023-06-19T13:59:37;3.55;;;3.25;;
55065;SDS011;40964;42.114;24.220;2023-06-19T14:02:02;3.63;;;3.13;;
55065;SDS011;40964;42.114;24.220;2023-06-19T14:04:28;7.65;;;4.00;;
55065;SDS011;40964;42.114;24.220;2023-06-19T14:06:53;5.00;;;3.42;;
55065;SDS011;40964;42.114;24.220;2023-06-19T14:09:20;7.93;;;3.63;;
55065;SDS011;40964;42.114;24.220;2023-06-19T14:11:46;3.63;;;3.33;;
55065;SDS011;40964;42.114;24.220;2023-06-19T14:14:11;3.95;;;3.55;;
55065;SDS011;40964;42.114;24.220;2023-06-19T14:16:37;4.03;;;3.65;;
55065;SDS011;40964;42.114;24.220;2023-06-19T14:19:02;4.68;;;3.28;;
55065;SDS011;40964;42.114;24.220;2023-06-19T14:21:27;5.53;;;3.75;;
55065;SDS011;40964;42.114;24.220;2023-06-19T14:23:53;4.32;;;3.63;;
55065;SDS011;40964;42.114;24.220;2023-06-19T14:26:19;4.82;;;3.53;;
55065;SDS011;40964;42.114;24.220;2023-06-19T14:28:44;5.07;;;3.75;;
55065;SDS011;40964;42.114;24.220;2023-06-19T14:31:10;4.50;;;3.47;;
55065;SDS011;40964;42.114;24.220;2023-06-19T14:33:36;5.43;;;3.40;;
55065;SDS011;40964;42.114;24.220;2023-06-19T14:36:03;7.43;;;4.32;;
55065;SDS011;40964;42.114;24.220;2023-06-19T14:38:28;7.60;;;4.30;;
55065;SDS011;40964;42.114;24.220;2023-06-19T14:40:58;4.20;;;3.80;;